sensor_id;sensor_type;location;lat;lon;timestamp;temperature;humidity
58865;DHT22;45702;52.982;6.658;2023-05-07T00:01:45;13.60;99.90
58865;DHT22;45702;52.982;6.658;2023-05-07T00:04:11;13.60;99.90
58865;DHT22;45702;52.982;6.658;2023-05-07T00:06:38;13.60;99.90
58865;DHT22;45702;52.982;6.658;2023-05-07T00:09:04;13.60;99.90
58865;DHT22;45702;52.982;6.658;2023-05-07T00:11:30;13.50;99.90
58865;DHT22;45702;52.982;6.658;2023-05-07T00:13:56;13.50;99.90
58865;DHT22;45702;52.982;6.658;2023-05-07T00:16:21;13.50;99.90
58865;DHT22;45702;52.982;6.658;2023-05-07T00:18:47;13.50;99.90
58865;DHT22;45702;52.982;6.658;2023-05-07T00:21:13;13.50;99.90
58865;DHT22;45702;52.982;6.658;2023-05-07T00:23:40;13.40;99.90
58865;DHT22;45702;52.982;6.658;2023-05-07T00:26:10;13.40;99.90
58865;DHT22;45702;52.982;6.658;2023-05-07T00:28:43;13.40;99.90
58865;DHT22;45702;52.982;6.658;2023-05-07T00:31:09;13.40;99.90
58865;DHT22;45702;52.982;6.658;2023-05-07T00:33:35;13.30;99.90
58865;DHT22;45702;52.982;6.658;2023-05-07T00:36:01;13.30;99.90
58865;DHT22;45702;52.982;6.658;2023-05-07T00:38:28;13.30;99.90
58865;DHT22;45702;52.982;6.658;2023-05-07T00:40:54;13.20;99.90
58865;DHT22;45702;52.982;6.658;2023-05-07T00:43:19;13.30;99.90
58865;DHT22;45702;52.982;6.658;2023-05-07T00:45:45;13.20;99.90
58865;DHT22;45702;52.982;6.658;2023-05-07T00:48:11;13.20;99.90
58865;DHT22;45702;52.982;6.658;2023-05-07T00:50:37;13.20;99.90
58865;DHT22;45702;52.982;6.658;2023-05-07T00:53:04;13.10;99.90
58865;DHT22;45702;52.982;6.658;2023-05-07T00:55:29;13.10;99.90
58865;DHT22;45702;52.982;6.658;2023-05-07T00:57:55;13.10;99.90
58865;DHT22;45702;52.982;6.658;2023-05-07T01:00:21;13.10;99.90
58865;DHT22;45702;52.982;6.658;2023-05-07T01:02:47;13.10;99.90
58865;DHT22;45702;52.982;6.658;2023-05-07T01:05:15;13.10;99.90
58865;DHT22;45702;52.982;6.658;2023-05-07T01:07:42;13.00;99.90
58865;DHT22;45702;52.982;6.658;2023-05-07T01:10:08;13.00;99.90
58865;DHT22;45702;52.982;6.658;2023-05-07T01:12:36;12.90;99.90
58865;DHT22;45702;52.982;6.658;2023-05-07T01:15:03;12.90;99.90
58865;DHT22;45702;52.982;6.658;2023-05-07T01:17:29;12.90;99.90
58865;DHT22;45702;52.982;6.658;2023-05-07T01:19:58;12.90;99.90
58865;DHT22;45702;52.982;6.658;2023-05-07T01:22:43;12.80;99.90
58865;DHT22;45702;52.982;6.658;2023-05-07T01:25:09;12.80;99.90
58865;DHT22;45702;52.982;6.658;2023-05-07T01:27:38;12.80;99.90
58865;DHT22;45702;52.982;6.658;2023-05-07T01:30:06;12.70;99.90
58865;DHT22;45702;52.982;6.658;2023-05-07T01:32:40;12.70;99.90
58865;DHT22;45702;52.982;6.658;2023-05-07T01:35:11;12.70;99.90
58865;DHT22;45702;52.982;6.658;2023-05-07T01:37:37;12.60;99.90
58865;DHT22;45702;52.982;6.658;2023-05-07T01:40:04;12.60;99.90
58865;DHT22;45702;52.982;6.658;2023-05-07T01:42:31;12.60;99.90
58865;DHT22;45702;52.982;6.658;2023-05-07T01:44:56;12.60;99.90
58865;DHT22;45702;52.982;6.658;2023-05-07T01:47:23;12.50;99.90
58865;DHT22;45702;52.982;6.658;2023-05-07T01:49:49;12.50;99.90
58865;DHT22;45702;52.982;6.658;2023-05-07T01:52:15;12.50;99.90
58865;DHT22;45702;52.982;6.658;2023-05-07T01:54:41;12.40;99.90
58865;DHT22;45702;52.982;6.658;2023-05-07T01:57:07;12.40;99.90
58865;DHT22;45702;52.982;6.658;2023-05-07T01:59:32;12.40;99.90
58865;DHT22;45702;52.982;6.658;2023-05-07T02:01:58;12.30;99.90
58865;DHT22;45702;52.982;6.658;2023-05-07T02:04:23;12.30;99.90
58865;DHT22;45702;52.982;6.658;2023-05-07T02:06:50;12.30;99.90
58865;DHT22;45702;52.982;6.658;2023-05-07T02:09:15;12.30;99.90
58865;DHT22;45702;52.982;6.658;2023-05-07T02:11:41;12.30;99.90
58865;DHT22;45702;52.982;6.658;2023-05-07T02:14:07;12.30;99.90
58865;DHT22;45702;52.982;6.658;2023-05-07T02:16:32;12.30;99.90
58865;DHT22;45702;52.982;6.658;2023-05-07T02:18:58;12.20;99.90
58865;DHT22;45702;52.982;6.658;2023-05-07T02:21:24;12.20;99.90
58865;DHT22;45702;52.982;6.658;2023-05-07T02:23:50;12.20;99.90
58865;DHT22;45702;52.982;6.658;2023-05-07T02:26:16;12.20;99.90
58865;DHT22;45702;52.982;6.658;2023-05-07T02:28:42;12.20;99.90
58865;DHT22;45702;52.982;6.658;2023-05-07T02:31:07;12.20;99.90
58865;DHT22;45702;52.982;6.658;2023-05-07T02:33:33;12.20;99.90
58865;DHT22;45702;52.982;6.658;2023-05-07T02:36:10;12.10;99.90
58865;DHT22;45702;52.982;6.658;2023-05-07T02:38:36;12.10;99.90
58865;DHT22;45702;52.982;6.658;2023-05-07T02:41:02;12.10;99.90
58865;DHT22;45702;52.982;6.658;2023-05-07T02:43:28;12.00;99.90
58865;DHT22;45702;52.982;6.658;2023-05-07T02:46:05;12.10;99.90
58865;DHT22;45702;52.982;6.658;2023-05-07T02:48:31;12.00;99.90
58865;DHT22;45702;52.982;6.658;2023-05-07T02:50:57;12.00;99.90
58865;DHT22;45702;52.982;6.658;2023-05-07T02:53:23;12.00;99.90
58865;DHT22;45702;52.982;6.658;2023-05-07T02:55:52;12.00;99.90
58865;DHT22;45702;52.982;6.658;2023-05-07T02:58:18;12.00;99.90
58865;DHT22;45702;52.982;6.658;2023-05-07T03:00:44;11.90;99.90
58865;DHT22;45702;52.982;6.658;2023-05-07T03:03:10;12.00;99.90
58865;DHT22;45702;52.982;6.658;2023-05-07T03:05:36;11.90;99.90
58865;DHT22;45702;52.982;6.658;2023-05-07T03:08:02;11.90;99.90
58865;DHT22;45702;52.982;6.658;2023-05-07T03:10:29;11.90;99.90
58865;DHT22;45702;52.982;6.658;2023-05-07T03:12:55;11.80;99.90
58865;DHT22;45702;52.982;6.658;2023-05-07T03:15:21;11.80;99.90
58865;DHT22;45702;52.982;6.658;2023-05-07T03:17:47;11.80;99.90
58865;DHT22;45702;52.982;6.658;2023-05-07T03:20:13;11.80;99.90
58865;DHT22;45702;52.982;6.658;2023-05-07T03:22:39;11.80;99.90
58865;DHT22;45702;52.982;6.658;2023-05-07T03:25:06;11.80;99.90
58865;DHT22;45702;52.982;6.658;2023-05-07T03:27:31;11.70;99.90
58865;DHT22;45702;52.982;6.658;2023-05-07T03:29:57;11.70;99.90
58865;DHT22;45702;52.982;6.658;2023-05-07T03:32:23;11.70;99.90
58865;DHT22;45702;52.982;6.658;2023-05-07T03:34:48;11.70;99.90
58865;DHT22;45702;52.982;6.658;2023-05-07T03:37:14;11.70;99.90
58865;DHT22;45702;52.982;6.658;2023-05-07T03:39:40;11.70;99.90
58865;DHT22;45702;52.982;6.658;2023-05-07T03:42:05;11.70;99.90
58865;DHT22;45702;52.982;6.658;2023-05-07T03:44:31;11.70;99.90
58865;DHT22;45702;52.982;6.658;2023-05-07T03:46:57;11.70;99.90
58865;DHT22;45702;52.982;6.658;2023-05-07T03:49:22;11.70;99.90
58865;DHT22;45702;52.982;6.658;2023-05-07T03:51:48;11.70;99.90
58865;DHT22;45702;52.982;6.658;2023-05-07T03:54:14;11.70;99.90
58865;DHT22;45702;52.982;6.658;2023-05-07T03:56:39;11.60;99.90
58865;DHT22;45702;52.982;6.658;2023-05-07T03:59:05;11.60;99.90
58865;DHT22;45702;52.982;6.658;2023-05-07T04:01:31;11.70;99.90
58865;DHT22;45702;52.982;6.658;2023-05-07T04:03:56;11.60;99.90
58865;DHT22;45702;52.982;6.658;2023-05-07T04:06:22;11.60;99.90
58865;DHT22;45702;52.982;6.658;2023-05-07T04:08:48;11.60;99.90
58865;DHT22;45702;52.982;6.658;2023-05-07T04:11:13;11.60;99.90
58865;DHT22;45702;52.982;6.658;2023-05-07T04:13:39;11.60;99.90
58865;DHT22;45702;52.982;6.658;2023-05-07T04:16:05;11.60;99.90
58865;DHT22;45702;52.982;6.658;2023-05-07T04:18:31;11.60;99.90
58865;DHT22;45702;52.982;6.658;2023-05-07T04:20:56;11.60;99.90
58865;DHT22;45702;52.982;6.658;2023-05-07T04:23:22;11.60;99.90
58865;DHT22;45702;52.982;6.658;2023-05-07T04:25:48;11.60;99.90
58865;DHT22;45702;52.982;6.658;2023-05-07T04:28:13;11.60;99.90
58865;DHT22;45702;52.982;6.658;2023-05-07T04:30:39;11.60;99.90
58865;DHT22;45702;52.982;6.658;2023-05-07T04:33:06;11.60;99.90
58865;DHT22;45702;52.982;6.658;2023-05-07T04:35:32;11.60;99.90
58865;DHT22;45702;52.982;6.658;2023-05-07T04:37:58;11.60;99.90
58865;DHT22;45702;52.982;6.658;2023-05-07T04:40:24;11.60;99.90
58865;DHT22;45702;52.982;6.658;2023-05-07T04:42:50;11.60;99.90
58865;DHT22;45702;52.982;6.658;2023-05-07T04:45:16;11.60;99.90
58865;DHT22;45702;52.982;6.658;2023-05-07T04:47:42;11.60;99.90
58865;DHT22;45702;52.982;6.658;2023-05-07T04:50:08;11.60;99.90
58865;DHT22;45702;52.982;6.658;2023-05-07T04:52:34;11.60;99.90
58865;DHT22;45702;52.982;6.658;2023-05-07T04:55:00;11.60;99.90
58865;DHT22;45702;52.982;6.658;2023-05-07T04:57:26;11.60;99.90
58865;DHT22;45702;52.982;6.658;2023-05-07T04:59:53;11.60;99.90
58865;DHT22;45702;52.982;6.658;2023-05-07T05:02:19;11.60;99.90
58865;DHT22;45702;52.982;6.658;2023-05-07T05:04:45;11.60;99.90
58865;DHT22;45702;52.982;6.658;2023-05-07T05:07:11;11.60;99.90
58865;DHT22;45702;52.982;6.658;2023-05-07T05:09:36;11.60;99.90
58865;DHT22;45702;52.982;6.658;2023-05-07T05:12:02;11.60;99.90
58865;DHT22;45702;52.982;6.658;2023-05-07T05:14:28;11.60;99.90
58865;DHT22;45702;52.982;6.658;2023-05-07T05:16:54;11.60;99.90
58865;DHT22;45702;52.982;6.658;2023-05-07T05:19:20;11.60;99.90
58865;DHT22;45702;52.982;6.658;2023-05-07T05:21:45;11.60;99.90
58865;DHT22;45702;52.982;6.658;2023-05-07T05:24:11;11.60;99.90
58865;DHT22;45702;52.982;6.658;2023-05-07T05:26:37;11.70;99.90
58865;DHT22;45702;52.982;6.658;2023-05-07T05:29:02;11.70;99.90
58865;DHT22;45702;52.982;6.658;2023-05-07T05:31:28;11.70;99.90
58865;DHT22;45702;52.982;6.658;2023-05-07T05:33:53;11.60;99.90
58865;DHT22;45702;52.982;6.658;2023-05-07T05:36:19;11.70;99.90
58865;DHT22;45702;52.982;6.658;2023-05-07T05:38:45;11.70;99.90
58865;DHT22;45702;52.982;6.658;2023-05-07T05:41:11;11.70;99.90
58865;DHT22;45702;52.982;6.658;2023-05-07T05:43:38;11.70;99.90
58865;DHT22;45702;52.982;6.658;2023-05-07T05:46:05;11.70;99.90
58865;DHT22;45702;52.982;6.658;2023-05-07T05:48:31;11.70;99.90
58865;DHT22;45702;52.982;6.658;2023-05-07T05:50:57;11.70;99.90
58865;DHT22;45702;52.982;6.658;2023-05-07T05:53:22;11.70;99.90
58865;DHT22;45702;52.982;6.658;2023-05-07T05:55:49;11.70;99.90
58865;DHT22;45702;52.982;6.658;2023-05-07T05:58:14;11.70;99.90
58865;DHT22;45702;52.982;6.658;2023-05-07T06:00:40;11.80;99.90
58865;DHT22;45702;52.982;6.658;2023-05-07T06:03:06;11.80;99.90
58865;DHT22;45702;52.982;6.658;2023-05-07T06:05:32;11.80;99.90
58865;DHT22;45702;52.982;6.658;2023-05-07T06:07:57;11.80;99.90
58865;DHT22;45702;52.982;6.658;2023-05-07T06:10:23;11.90;99.90
58865;DHT22;45702;52.982;6.658;2023-05-07T06:12:49;12.00;99.90
58865;DHT22;45702;52.982;6.658;2023-05-07T06:15:15;12.00;99.90
58865;DHT22;45702;52.982;6.658;2023-05-07T06:17:41;12.00;99.90
58865;DHT22;45702;52.982;6.658;2023-05-07T06:20:07;12.00;99.90
58865;DHT22;45702;52.982;6.658;2023-05-07T06:22:33;12.00;99.90
58865;DHT22;45702;52.982;6.658;2023-05-07T06:24:58;12.00;99.90
58865;DHT22;45702;52.982;6.658;2023-05-07T06:27:24;12.00;99.90
58865;DHT22;45702;52.982;6.658;2023-05-07T06:29:50;12.00;99.90
58865;DHT22;45702;52.982;6.658;2023-05-07T06:32:16;12.10;99.90
58865;DHT22;45702;52.982;6.658;2023-05-07T06:34:42;12.10;99.90
58865;DHT22;45702;52.982;6.658;2023-05-07T06:37:08;12.10;99.90
58865;DHT22;45702;52.982;6.658;2023-05-07T06:39:33;12.10;99.90
58865;DHT22;45702;52.982;6.658;2023-05-07T06:42:03;12.10;99.90
58865;DHT22;45702;52.982;6.658;2023-05-07T06:44:30;12.10;99.90
58865;DHT22;45702;52.982;6.658;2023-05-07T06:46:56;12.10;99.90
58865;DHT22;45702;52.982;6.658;2023-05-07T06:49:22;12.10;99.90
58865;DHT22;45702;52.982;6.658;2023-05-07T06:51:48;12.20;99.90
58865;DHT22;45702;52.982;6.658;2023-05-07T06:54:18;12.20;99.90
58865;DHT22;45702;52.982;6.658;2023-05-07T06:56:44;12.20;99.90
58865;DHT22;45702;52.982;6.658;2023-05-07T06:59:09;12.20;99.90
58865;DHT22;45702;52.982;6.658;2023-05-07T07:01:35;12.20;99.90
58865;DHT22;45702;52.982;6.658;2023-05-07T07:04:01;12.20;99.90
58865;DHT22;45702;52.982;6.658;2023-05-07T07:06:26;12.30;99.90
58865;DHT22;45702;52.982;6.658;2023-05-07T07:08:52;12.30;99.90
58865;DHT22;45702;52.982;6.658;2023-05-07T07:11:18;12.30;99.90
58865;DHT22;45702;52.982;6.658;2023-05-07T07:13:43;12.30;99.90
58865;DHT22;45702;52.982;6.658;2023-05-07T07:16:09;12.40;99.90
58865;DHT22;45702;52.982;6.658;2023-05-07T07:18:35;12.50;99.90
58865;DHT22;45702;52.982;6.658;2023-05-07T07:21:01;12.50;99.90
58865;DHT22;45702;52.982;6.658;2023-05-07T07:23:26;12.60;99.90
58865;DHT22;45702;52.982;6.658;2023-05-07T07:25:52;12.60;99.90
58865;DHT22;45702;52.982;6.658;2023-05-07T07:28:21;12.60;99.90
58865;DHT22;45702;52.982;6.658;2023-05-07T07:30:47;12.60;99.90
58865;DHT22;45702;52.982;6.658;2023-05-07T07:33:12;12.60;99.90
58865;DHT22;45702;52.982;6.658;2023-05-07T07:35:38;12.70;99.90
58865;DHT22;45702;52.982;6.658;2023-05-07T07:38:04;12.70;99.90
58865;DHT22;45702;52.982;6.658;2023-05-07T07:40:30;12.70;99.90
58865;DHT22;45702;52.982;6.658;2023-05-07T07:42:56;12.70;99.90
58865;DHT22;45702;52.982;6.658;2023-05-07T07:45:22;12.70;99.90
58865;DHT22;45702;52.982;6.658;2023-05-07T07:47:48;12.80;99.90
58865;DHT22;45702;52.982;6.658;2023-05-07T07:50:13;12.80;99.90
58865;DHT22;45702;52.982;6.658;2023-05-07T07:52:39;12.80;99.90
58865;DHT22;45702;52.982;6.658;2023-05-07T07:55:05;12.90;99.90
58865;DHT22;45702;52.982;6.658;2023-05-07T07:57:31;12.90;99.90
58865;DHT22;45702;52.982;6.658;2023-05-07T07:59:57;12.80;99.90
58865;DHT22;45702;52.982;6.658;2023-05-07T08:02:22;12.80;99.90
58865;DHT22;45702;52.982;6.658;2023-05-07T08:04:48;12.90;99.90
58865;DHT22;45702;52.982;6.658;2023-05-07T08:07:14;13.00;99.90
58865;DHT22;45702;52.982;6.658;2023-05-07T08:09:40;13.10;99.90
58865;DHT22;45702;52.982;6.658;2023-05-07T08:12:06;13.10;99.90
58865;DHT22;45702;52.982;6.658;2023-05-07T08:14:33;13.20;99.90
58865;DHT22;45702;52.982;6.658;2023-05-07T08:16:59;13.20;99.90
58865;DHT22;45702;52.982;6.658;2023-05-07T08:19:24;13.30;99.90
58865;DHT22;45702;52.982;6.658;2023-05-07T08:21:50;13.40;99.90
58865;DHT22;45702;52.982;6.658;2023-05-07T08:24:16;13.40;99.90
58865;DHT22;45702;52.982;6.658;2023-05-07T08:26:43;13.50;99.90
58865;DHT22;45702;52.982;6.658;2023-05-07T08:29:09;13.60;99.90
58865;DHT22;45702;52.982;6.658;2023-05-07T08:31:35;13.80;99.90
58865;DHT22;45702;52.982;6.658;2023-05-07T08:34:00;13.80;99.90
58865;DHT22;45702;52.982;6.658;2023-05-07T08:36:26;13.90;99.90
58865;DHT22;45702;52.982;6.658;2023-05-07T08:38:52;13.90;99.90
58865;DHT22;45702;52.982;6.658;2023-05-07T08:41:18;14.00;99.90
58865;DHT22;45702;52.982;6.658;2023-05-07T08:43:48;14.00;99.90
58865;DHT22;45702;52.982;6.658;2023-05-07T08:46:20;14.00;99.90
58865;DHT22;45702;52.982;6.658;2023-05-07T08:48:50;14.00;99.90
58865;DHT22;45702;52.982;6.658;2023-05-07T08:51:17;14.00;99.90
58865;DHT22;45702;52.982;6.658;2023-05-07T08:53:44;14.00;99.90
58865;DHT22;45702;52.982;6.658;2023-05-07T08:56:10;14.00;99.90
58865;DHT22;45702;52.982;6.658;2023-05-07T08:58:36;14.00;99.90
58865;DHT22;45702;52.982;6.658;2023-05-07T09:01:13;14.00;99.90
58865;DHT22;45702;52.982;6.658;2023-05-07T09:03:40;14.10;99.90
58865;DHT22;45702;52.982;6.658;2023-05-07T09:06:06;14.20;99.90
58865;DHT22;45702;52.982;6.658;2023-05-07T09:08:33;14.30;99.90
58865;DHT22;45702;52.982;6.658;2023-05-07T09:10:59;14.40;99.90
58865;DHT22;45702;52.982;6.658;2023-05-07T09:13:27;14.50;99.90
58865;DHT22;45702;52.982;6.658;2023-05-07T09:15:52;14.60;99.90
58865;DHT22;45702;52.982;6.658;2023-05-07T09:18:18;14.70;99.90
58865;DHT22;45702;52.982;6.658;2023-05-07T09:20:44;14.80;99.90
58865;DHT22;45702;52.982;6.658;2023-05-07T09:23:10;14.80;99.90
58865;DHT22;45702;52.982;6.658;2023-05-07T09:25:36;14.90;99.90
58865;DHT22;45702;52.982;6.658;2023-05-07T09:28:03;15.00;99.90
58865;DHT22;45702;52.982;6.658;2023-05-07T09:30:34;15.00;99.90
58865;DHT22;45702;52.982;6.658;2023-05-07T09:33:02;15.10;99.90
58865;DHT22;45702;52.982;6.658;2023-05-07T09:35:29;15.10;99.90
58865;DHT22;45702;52.982;6.658;2023-05-07T09:37:59;15.30;99.90
58865;DHT22;45702;52.982;6.658;2023-05-07T09:40:27;15.40;99.90
58865;DHT22;45702;52.982;6.658;2023-05-07T09:42:53;15.50;99.90
58865;DHT22;45702;52.982;6.658;2023-05-07T09:45:28;15.60;99.90
58865;DHT22;45702;52.982;6.658;2023-05-07T09:47:56;15.70;99.90
58865;DHT22;45702;52.982;6.658;2023-05-07T09:50:30;15.90;99.90
58865;DHT22;45702;52.982;6.658;2023-05-07T09:52:58;16.00;99.90
58865;DHT22;45702;52.982;6.658;2023-05-07T09:55:24;16.20;99.90
58865;DHT22;45702;52.982;6.658;2023-05-07T09:57:52;16.40;99.90
58865;DHT22;45702;52.982;6.658;2023-05-07T10:00:21;16.50;99.90
58865;DHT22;45702;52.982;6.658;2023-05-07T10:02:49;16.60;99.90
58865;DHT22;45702;52.982;6.658;2023-05-07T10:05:18;16.70;99.90
58865;DHT22;45702;52.982;6.658;2023-05-07T10:07:44;16.70;99.90
58865;DHT22;45702;52.982;6.658;2023-05-07T10:10:10;16.70;99.90
58865;DHT22;45702;52.982;6.658;2023-05-07T10:12:36;16.80;99.90
58865;DHT22;45702;52.982;6.658;2023-05-07T10:15:11;16.90;99.90
58865;DHT22;45702;52.982;6.658;2023-05-07T10:17:40;17.00;99.90
58865;DHT22;45702;52.982;6.658;2023-05-07T10:20:07;17.00;99.90
58865;DHT22;45702;52.982;6.658;2023-05-07T10:22:45;17.10;99.90
58865;DHT22;45702;52.982;6.658;2023-05-07T10:25:18;17.10;99.90
58865;DHT22;45702;52.982;6.658;2023-05-07T10:27:47;17.20;99.90
58865;DHT22;45702;52.982;6.658;2023-05-07T10:32:52;17.20;99.90
58865;DHT22;45702;52.982;6.658;2023-05-07T10:35:26;17.20;99.90
58865;DHT22;45702;52.982;6.658;2023-05-07T10:37:54;17.30;99.90
58865;DHT22;45702;52.982;6.658;2023-05-07T10:40:20;17.40;99.90
58865;DHT22;45702;52.982;6.658;2023-05-07T10:42:57;17.40;99.90
58865;DHT22;45702;52.982;6.658;2023-05-07T10:45:25;17.50;99.90
58865;DHT22;45702;52.982;6.658;2023-05-07T10:48:15;17.60;99.90
58865;DHT22;45702;52.982;6.658;2023-05-07T10:50:42;17.70;99.90
58865;DHT22;45702;52.982;6.658;2023-05-07T10:55:46;18.00;99.90
58865;DHT22;45702;52.982;6.658;2023-05-07T11:01:00;18.10;99.90
58865;DHT22;45702;52.982;6.658;2023-05-07T11:03:27;18.20;99.90
58865;DHT22;45702;52.982;6.658;2023-05-07T11:06:13;18.20;99.90
58865;DHT22;45702;52.982;6.658;2023-05-07T11:11:18;18.50;99.90
58865;DHT22;45702;52.982;6.658;2023-05-07T11:13:48;18.60;99.90
58865;DHT22;45702;52.982;6.658;2023-05-07T11:16:20;18.70;99.90
58865;DHT22;45702;52.982;6.658;2023-05-07T11:18:48;18.70;99.90
58865;DHT22;45702;52.982;6.658;2023-05-07T11:23:57;18.80;99.40
58865;DHT22;45702;52.982;6.658;2023-05-07T11:26:24;18.70;98.60
58865;DHT22;45702;52.982;6.658;2023-05-07T11:28:51;18.70;99.00
58865;DHT22;45702;52.982;6.658;2023-05-07T11:31:21;18.70;99.00
58865;DHT22;45702;52.982;6.658;2023-05-07T11:33:48;18.70;98.50
58865;DHT22;45702;52.982;6.658;2023-05-07T11:36:14;18.80;98.20
58865;DHT22;45702;52.982;6.658;2023-05-07T11:38:40;18.80;98.30
58865;DHT22;45702;52.982;6.658;2023-05-07T11:41:06;18.80;97.80
58865;DHT22;45702;52.982;6.658;2023-05-07T11:43:33;18.80;97.20
58865;DHT22;45702;52.982;6.658;2023-05-07T11:46:07;18.80;97.40
58865;DHT22;45702;52.982;6.658;2023-05-07T11:48:33;18.80;97.50
58865;DHT22;45702;52.982;6.658;2023-05-07T11:53:25;18.90;96.60
58865;DHT22;45702;52.982;6.658;2023-05-07T11:55:57;18.90;96.80
58865;DHT22;45702;52.982;6.658;2023-05-07T11:58:24;18.90;96.60
58865;DHT22;45702;52.982;6.658;2023-05-07T12:00:51;18.90;97.20
58865;DHT22;45702;52.982;6.658;2023-05-07T12:03:17;19.00;97.20
58865;DHT22;45702;52.982;6.658;2023-05-07T12:05:46;19.10;96.90
58865;DHT22;45702;52.982;6.658;2023-05-07T12:08:16;19.10;96.40
58865;DHT22;45702;52.982;6.658;2023-05-07T12:10:43;19.20;96.20
58865;DHT22;45702;52.982;6.658;2023-05-07T12:13:15;19.10;96.00
58865;DHT22;45702;52.982;6.658;2023-05-07T12:15:42;19.10;95.80
58865;DHT22;45702;52.982;6.658;2023-05-07T12:18:08;19.20;96.10
58865;DHT22;45702;52.982;6.658;2023-05-07T12:20:37;19.20;96.10
58865;DHT22;45702;52.982;6.658;2023-05-07T12:23:03;19.20;95.60
58865;DHT22;45702;52.982;6.658;2023-05-07T12:25:35;19.20;95.80
58865;DHT22;45702;52.982;6.658;2023-05-07T12:28:02;19.30;95.50
58865;DHT22;45702;52.982;6.658;2023-05-07T12:30:29;19.40;95.30
58865;DHT22;45702;52.982;6.658;2023-05-07T12:32:55;19.50;95.10
58865;DHT22;45702;52.982;6.658;2023-05-07T12:35:31;19.60;95.10
58865;DHT22;45702;52.982;6.658;2023-05-07T12:38:00;19.60;94.80
58865;DHT22;45702;52.982;6.658;2023-05-07T12:40:40;19.70;94.40
58865;DHT22;45702;52.982;6.658;2023-05-07T12:43:07;19.70;94.80
58865;DHT22;45702;52.982;6.658;2023-05-07T12:45:39;19.70;95.20
58865;DHT22;45702;52.982;6.658;2023-05-07T12:48:06;19.90;95.30
58865;DHT22;45702;52.982;6.658;2023-05-07T12:50:33;20.00;95.10
58865;DHT22;45702;52.982;6.658;2023-05-07T12:52:59;20.10;95.20
58865;DHT22;45702;52.982;6.658;2023-05-07T12:55:25;20.10;94.90
58865;DHT22;45702;52.982;6.658;2023-05-07T12:57:51;20.20;94.60
58865;DHT22;45702;52.982;6.658;2023-05-07T13:00:32;20.40;94.20
58865;DHT22;45702;52.982;6.658;2023-05-07T13:02:58;20.40;94.00
58865;DHT22;45702;52.982;6.658;2023-05-07T13:05:24;20.50;93.90
58865;DHT22;45702;52.982;6.658;2023-05-07T13:07:54;20.60;93.30
58865;DHT22;45702;52.982;6.658;2023-05-07T13:10:21;20.60;94.80
58865;DHT22;45702;52.982;6.658;2023-05-07T13:12:47;20.80;93.80
58865;DHT22;45702;52.982;6.658;2023-05-07T13:15:12;20.90;92.30
58865;DHT22;45702;52.982;6.658;2023-05-07T13:17:38;20.90;92.40
58865;DHT22;45702;52.982;6.658;2023-05-07T13:20:04;20.90;92.60
58865;DHT22;45702;52.982;6.658;2023-05-07T13:22:31;20.90;92.00
58865;DHT22;45702;52.982;6.658;2023-05-07T13:24:57;20.90;91.50
58865;DHT22;45702;52.982;6.658;2023-05-07T13:27:22;20.90;91.10
58865;DHT22;45702;52.982;6.658;2023-05-07T13:29:48;20.90;91.20
58865;DHT22;45702;52.982;6.658;2023-05-07T13:32:14;20.90;91.30
58865;DHT22;45702;52.982;6.658;2023-05-07T13:34:39;20.90;90.20
58865;DHT22;45702;52.982;6.658;2023-05-07T13:37:05;20.90;89.30
58865;DHT22;45702;52.982;6.658;2023-05-07T13:39:33;20.80;89.90
58865;DHT22;45702;52.982;6.658;2023-05-07T13:41:58;20.80;90.40
58865;DHT22;45702;52.982;6.658;2023-05-07T13:44:24;20.80;89.40
58865;DHT22;45702;52.982;6.658;2023-05-07T13:46:50;20.70;89.30
58865;DHT22;45702;52.982;6.658;2023-05-07T13:49:16;20.60;90.00
58865;DHT22;45702;52.982;6.658;2023-05-07T13:51:42;20.60;90.00
58865;DHT22;45702;52.982;6.658;2023-05-07T13:54:07;20.60;90.70
58865;DHT22;45702;52.982;6.658;2023-05-07T13:56:33;20.70;91.10
58865;DHT22;45702;52.982;6.658;2023-05-07T13:58:59;20.80;91.20
58865;DHT22;45702;52.982;6.658;2023-05-07T14:01:25;20.80;90.20
58865;DHT22;45702;52.982;6.658;2023-05-07T14:03:50;20.90;90.70
58865;DHT22;45702;52.982;6.658;2023-05-07T14:06:16;21.10;90.60
58865;DHT22;45702;52.982;6.658;2023-05-07T14:08:42;21.40;91.10
58865;DHT22;45702;52.982;6.658;2023-05-07T14:11:07;21.50;89.60
58865;DHT22;45702;52.982;6.658;2023-05-07T14:13:33;21.60;87.40
58865;DHT22;45702;52.982;6.658;2023-05-07T14:15:59;21.70;87.10
58865;DHT22;45702;52.982;6.658;2023-05-07T14:18:26;21.80;87.60
58865;DHT22;45702;52.982;6.658;2023-05-07T14:20:52;21.90;87.80
58865;DHT22;45702;52.982;6.658;2023-05-07T14:23:17;22.10;87.30
58865;DHT22;45702;52.982;6.658;2023-05-07T14:25:45;22.20;87.10
58865;DHT22;45702;52.982;6.658;2023-05-07T14:28:13;22.30;84.50
58865;DHT22;45702;52.982;6.658;2023-05-07T14:30:39;22.20;82.90
58865;DHT22;45702;52.982;6.658;2023-05-07T14:33:04;22.10;82.90
58865;DHT22;45702;52.982;6.658;2023-05-07T14:35:30;22.00;83.00
58865;DHT22;45702;52.982;6.658;2023-05-07T14:37:56;21.90;83.20
58865;DHT22;45702;52.982;6.658;2023-05-07T14:40:21;22.00;83.30
58865;DHT22;45702;52.982;6.658;2023-05-07T14:42:47;21.90;81.10
58865;DHT22;45702;52.982;6.658;2023-05-07T14:45:13;21.70;82.00
58865;DHT22;45702;52.982;6.658;2023-05-07T14:47:38;21.60;81.40
58865;DHT22;45702;52.982;6.658;2023-05-07T14:50:04;21.40;82.30
58865;DHT22;45702;52.982;6.658;2023-05-07T14:52:30;21.30;83.60
58865;DHT22;45702;52.982;6.658;2023-05-07T14:54:56;21.20;83.30
58865;DHT22;45702;52.982;6.658;2023-05-07T14:57:21;21.10;85.10
58865;DHT22;45702;52.982;6.658;2023-05-07T14:59:47;21.00;85.70
58865;DHT22;45702;52.982;6.658;2023-05-07T15:02:13;20.80;85.60
58865;DHT22;45702;52.982;6.658;2023-05-07T15:04:39;20.70;86.40
58865;DHT22;45702;52.982;6.658;2023-05-07T15:07:14;20.50;87.60
58865;DHT22;45702;52.982;6.658;2023-05-07T15:09:43;20.40;87.80
58865;DHT22;45702;52.982;6.658;2023-05-07T15:12:08;20.20;86.80
58865;DHT22;45702;52.982;6.658;2023-05-07T15:14:34;20.00;85.40
58865;DHT22;45702;52.982;6.658;2023-05-07T15:17:00;19.90;88.10
58865;DHT22;45702;52.982;6.658;2023-05-07T15:19:26;19.80;89.90
58865;DHT22;45702;52.982;6.658;2023-05-07T15:21:58;19.80;89.60
58865;DHT22;45702;52.982;6.658;2023-05-07T15:24:25;19.80;90.10
58865;DHT22;45702;52.982;6.658;2023-05-07T15:26:53;19.80;91.40
58865;DHT22;45702;52.982;6.658;2023-05-07T15:29:19;20.00;92.40
58865;DHT22;45702;52.982;6.658;2023-05-07T15:31:46;20.40;91.80
58865;DHT22;45702;52.982;6.658;2023-05-07T15:34:12;20.70;90.90
58865;DHT22;45702;52.982;6.658;2023-05-07T15:36:45;21.00;90.30
58865;DHT22;45702;52.982;6.658;2023-05-07T15:39:11;21.50;89.20
58865;DHT22;45702;52.982;6.658;2023-05-07T15:41:37;22.10;86.60
58865;DHT22;45702;52.982;6.658;2023-05-07T15:44:03;22.30;83.50